sensor_id;sensor_type;location;lat;lon;timestamp;pressure;altitude;pressure_sealevel;temperature;humidity
76378;BME280;65200;49.500;8.654;2023-07-20T00:01:10;100256.47;;;20.05;52.53
76378;BME280;65200;49.500;8.654;2023-07-20T00:03:36;100253.16;;;20.03;51.99
76378;BME280;65200;49.500;8.654;2023-07-20T00:06:03;100251.22;;;19.98;52.33
76378;BME280;65200;49.500;8.654;2023-07-20T00:08:30;100246.84;;;19.97;52.04
76378;BME280;65200;49.500;8.654;2023-07-20T00:10:57;100254.38;;;19.90;52.52
76378;BME280;65200;49.500;8.654;2023-07-20T00:13:25;100265.53;;;19.89;52.40
76378;BME280;65200;49.500;8.654;2023-07-20T00:15:51;100263.72;;;19.78;53.03
76378;BME280;65200;49.500;8.654;2023-07-20T00:18:18;100267.47;;;19.72;52.94
76378;BME280;65200;49.500;8.654;2023-07-20T00:20:46;100263.09;;;19.71;53.00
76378;BME280;65200;49.500;8.654;2023-07-20T00:23:12;100269.28;;;19.66;53.35
76378;BME280;65200;49.500;8.654;2023-07-20T00:25:39;100268.41;;;19.61;53.45
76378;BME280;65200;49.500;8.654;2023-07-20T00:28:05;100262.31;;;19.54;54.12
76378;BME280;65200;49.500;8.654;2023-07-20T00:30:33;100256.56;;;19.50;53.72
76378;BME280;65200;49.500;8.654;2023-07-20T00:32:59;100263.84;;;19.45;53.47
76378;BME280;65200;49.500;8.654;2023-07-20T00:35:26;100264.38;;;19.47;53.99
76378;BME280;65200;49.500;8.654;2023-07-20T00:37:52;100267.59;;;19.44;54.24
76378;BME280;65200;49.500;8.654;2023-07-20T00:40:19;100269.78;;;19.42;54.27
76378;BME280;65200;49.500;8.654;2023-07-20T00:42:45;100268.44;;;19.44;53.93
76378;BME280;65200;49.500;8.654;2023-07-20T00:45:12;100265.63;;;19.39;54.41
76378;BME280;65200;49.500;8.654;2023-07-20T00:47:40;100267.06;;;19.42;55.01
76378;BME280;65200;49.500;8.654;2023-07-20T00:50:07;100273.53;;;19.41;55.14
76378;BME280;65200;49.500;8.654;2023-07-20T00:52:37;100276.34;;;19.46;54.70
76378;BME280;65200;49.500;8.654;2023-07-20T00:55:04;100272.31;;;19.48;54.43
76378;BME280;65200;49.500;8.654;2023-07-20T00:57:31;100276.44;;;19.34;55.40
76378;BME280;65200;49.500;8.654;2023-07-20T00:59:58;100277.53;;;19.33;55.21
76378;BME280;65200;49.500;8.654;2023-07-20T01:02:24;100263.09;;;19.33;54.93
76378;BME280;65200;49.500;8.654;2023-07-20T01:04:52;100275.13;;;19.20;55.54
76378;BME280;65200;49.500;8.654;2023-07-20T01:07:23;100274.78;;;19.17;57.21
76378;BME280;65200;49.500;8.654;2023-07-20T01:09:58;100277.31;;;19.06;57.93
76378;BME280;65200;49.500;8.654;2023-07-20T01:12:31;100279.47;;;19.04;56.69
76378;BME280;65200;49.500;8.654;2023-07-20T01:15:01;100277.50;;;19.00;56.44
76378;BME280;65200;49.500;8.654;2023-07-20T01:17:27;100267.38;;;18.95;55.94
76378;BME280;65200;49.500;8.654;2023-07-20T01:19:55;100273.19;;;18.71;58.15
76378;BME280;65200;49.500;8.654;2023-07-20T01:22:45;100275.66;;;18.72;57.09
76378;BME280;65200;49.500;8.654;2023-07-20T01:25:34;100261.41;;;18.65;57.34
76378;BME280;65200;49.500;8.654;2023-07-20T01:28:32;100270.06;;;18.62;56.65
76378;BME280;65200;49.500;8.654;2023-07-20T01:31:14;100274.63;;;18.73;57.53
76378;BME280;65200;49.500;8.654;2023-07-20T01:33:41;100267.44;;;18.67;56.65
76378;BME280;65200;49.500;8.654;2023-07-20T01:36:09;100269.50;;;18.60;57.10
76378;BME280;65200;49.500;8.654;2023-07-20T01:38:36;100266.41;;;18.40;57.90
76378;BME280;65200;49.500;8.654;2023-07-20T01:41:03;100263.06;;;18.38;58.63
76378;BME280;65200;49.500;8.654;2023-07-20T01:43:30;100266.84;;;18.49;56.93
76378;BME280;65200;49.500;8.654;2023-07-20T01:45:56;100266.59;;;18.50;56.90
76378;BME280;65200;49.500;8.654;2023-07-20T01:48:24;100259.53;;;18.38;57.43
76378;BME280;65200;49.500;8.654;2023-07-20T01:50:50;100265.31;;;18.13;59.54
76378;BME280;65200;49.500;8.654;2023-07-20T01:53:17;100261.25;;;18.27;58.00
76378;BME280;65200;49.500;8.654;2023-07-20T01:55:44;100260.84;;;18.35;58.37
76378;BME280;65200;49.500;8.654;2023-07-20T01:58:10;100262.53;;;18.25;58.19
76378;BME280;65200;49.500;8.654;2023-07-20T02:00:37;100262.69;;;18.18;59.62
76378;BME280;65200;49.500;8.654;2023-07-20T02:03:03;100272.03;;;18.11;58.58
76378;BME280;65200;49.500;8.654;2023-07-20T02:05:31;100261.94;;;17.95;59.37
76378;BME280;65200;49.500;8.654;2023-07-20T02:07:57;100261.50;;;17.86;59.91
76378;BME280;65200;49.500;8.654;2023-07-20T02:10:24;100267.38;;;17.95;59.89
76378;BME280;65200;49.500;8.654;2023-07-20T02:12:50;100266.13;;;17.74;60.64
76378;BME280;65200;49.500;8.654;2023-07-20T02:15:17;100272.47;;;17.79;61.40
76378;BME280;65200;49.500;8.654;2023-07-20T02:17:44;100262.25;;;17.70;60.95
76378;BME280;65200;49.500;8.654;2023-07-20T02:20:11;100263.09;;;17.59;62.38
76378;BME280;65200;49.500;8.654;2023-07-20T02:22:39;100266.28;;;17.56;62.65
76378;BME280;65200;49.500;8.654;2023-07-20T02:25:07;100267.31;;;17.55;63.09
76378;BME280;65200;49.500;8.654;2023-07-20T02:27:34;100267.34;;;17.32;62.89
76378;BME280;65200;49.500;8.654;2023-07-20T02:30:00;100272.50;;;17.33;63.08
76378;BME280;65200;49.500;8.654;2023-07-20T02:32:27;100276.81;;;16.88;65.29
76378;BME280;65200;49.500;8.654;2023-07-20T02:34:54;100271.28;;;16.95;64.66
76378;BME280;65200;49.500;8.654;2023-07-20T02:37:20;100273.88;;;16.90;65.36
76378;BME280;65200;49.500;8.654;2023-07-20T02:39:48;100272.03;;;17.02;64.64
76378;BME280;65200;49.500;8.654;2023-07-20T02:42:15;100271.31;;;17.18;63.49
76378;BME280;65200;49.500;8.654;2023-07-20T02:44:41;100280.38;;;16.89;65.06
76378;BME280;65200;49.500;8.654;2023-07-20T02:47:08;100278.00;;;16.92;65.42
76378;BME280;65200;49.500;8.654;2023-07-20T02:49:34;100278.50;;;17.01;65.40
76378;BME280;65200;49.500;8.654;2023-07-20T02:52:01;100278.97;;;16.86;64.24
76378;BME280;65200;49.500;8.654;2023-07-20T02:54:28;100283.22;;;17.05;64.79
76378;BME280;65200;49.500;8.654;2023-07-20T02:56:57;100283.44;;;17.04;64.76
76378;BME280;65200;49.500;8.654;2023-07-20T02:59:23;100273.56;;;16.98;64.23
76378;BME280;65200;49.500;8.654;2023-07-20T03:01:49;100274.72;;;17.02;64.20
76378;BME280;65200;49.500;8.654;2023-07-20T03:04:16;100282.47;;;16.87;66.38
76378;BME280;65200;49.500;8.654;2023-07-20T03:06:42;100284.47;;;16.80;66.00
76378;BME280;65200;49.500;8.654;2023-07-20T03:09:09;100286.22;;;16.74;66.43
76378;BME280;65200;49.500;8.654;2023-07-20T03:11:35;100283.34;;;16.58;66.76
76378;BME280;65200;49.500;8.654;2023-07-20T03:14:03;100285.25;;;16.57;66.97
76378;BME280;65200;49.500;8.654;2023-07-20T03:16:30;100278.84;;;16.04;69.37
76378;BME280;65200;49.500;8.654;2023-07-20T03:18:58;100273.09;;;16.30;67.28
76378;BME280;65200;49.500;8.654;2023-07-20T03:21:24;100273.91;;;16.49;66.66
76378;BME280;65200;49.500;8.654;2023-07-20T03:23:51;100278.53;;;16.60;66.40
76378;BME280;65200;49.500;8.654;2023-07-20T03:26:17;100282.06;;;16.60;66.74
76378;BME280;65200;49.500;8.654;2023-07-20T03:28:43;100286.31;;;16.68;66.11
76378;BME280;65200;49.500;8.654;2023-07-20T03:31:11;100287.75;;;16.82;65.43
76378;BME280;65200;49.500;8.654;2023-07-20T03:33:38;100290.94;;;16.79;65.80
76378;BME280;65200;49.500;8.654;2023-07-20T03:36:04;100284.91;;;16.77;65.83
76378;BME280;65200;49.500;8.654;2023-07-20T03:38:31;100291.72;;;16.68;66.25
76378;BME280;65200;49.500;8.654;2023-07-20T03:40:59;100291.00;;;16.61;66.74
76378;BME280;65200;49.500;8.654;2023-07-20T03:43:27;100294.41;;;16.56;67.35
76378;BME280;65200;49.500;8.654;2023-07-20T03:45:54;100289.09;;;16.50;67.46
76378;BME280;65200;49.500;8.654;2023-07-20T03:48:23;100294.63;;;16.55;67.78
76378;BME280;65200;49.500;8.654;2023-07-20T03:50:52;100295.47;;;16.55;66.54
76378;BME280;65200;49.500;8.654;2023-07-20T03:53:18;100296.16;;;16.62;66.96
76378;BME280;65200;49.500;8.654;2023-07-20T03:55:45;100294.53;;;16.61;67.33
76378;BME280;65200;49.500;8.654;2023-07-20T03:58:12;100301.25;;;16.40;69.12
76378;BME280;65200;49.500;8.654;2023-07-20T04:00:39;100301.75;;;16.19;69.39
76378;BME280;65200;49.500;8.654;2023-07-20T04:03:06;100308.50;;;16.28;69.00
76378;BME280;65200;49.500;8.654;2023-07-20T04:05:33;100305.31;;;16.50;69.96
76378;BME280;65200;49.500;8.654;2023-07-20T04:08:00;100309.50;;;16.64;68.95
76378;BME280;65200;49.500;8.654;2023-07-20T04:10:26;100322.00;;;16.47;69.55
76378;BME280;65200;49.500;8.654;2023-07-20T04:12:53;100318.06;;;16.42;69.04
76378;BME280;65200;49.500;8.654;2023-07-20T04:15:19;100317.91;;;16.26;71.42
76378;BME280;65200;49.500;8.654;2023-07-20T04:17:46;100325.09;;;16.50;71.05
76378;BME280;65200;49.500;8.654;2023-07-20T04:20:12;100321.84;;;16.41;70.37
76378;BME280;65200;49.500;8.654;2023-07-20T04:22:40;100332.38;;;16.50;72.14
76378;BME280;65200;49.500;8.654;2023-07-20T04:25:06;100323.97;;;16.69;71.72
76378;BME280;65200;49.500;8.654;2023-07-20T04:27:33;100330.41;;;16.98;70.26
76378;BME280;65200;49.500;8.654;2023-07-20T04:29:59;100326.50;;;16.94;69.89
76378;BME280;65200;49.500;8.654;2023-07-20T04:32:26;100325.13;;;17.14;66.18
76378;BME280;65200;49.500;8.654;2023-07-20T04:34:52;100326.81;;;17.27;67.94
76378;BME280;65200;49.500;8.654;2023-07-20T04:37:19;100334.72;;;17.40;66.41
76378;BME280;65200;49.500;8.654;2023-07-20T04:39:46;100329.09;;;17.53;65.32
76378;BME280;65200;49.500;8.654;2023-07-20T04:42:13;100331.44;;;17.61;65.25
76378;BME280;65200;49.500;8.654;2023-07-20T04:44:40;100340.72;;;17.65;64.36
76378;BME280;65200;49.500;8.654;2023-07-20T04:47:07;100330.81;;;17.94;64.16
76378;BME280;65200;49.500;8.654;2023-07-20T04:49:34;100340.00;;;17.93;63.48
76378;BME280;65200;49.500;8.654;2023-07-20T04:52:01;100337.88;;;17.95;63.52
76378;BME280;65200;49.500;8.654;2023-07-20T04:54:28;100331.06;;;17.81;64.00
76378;BME280;65200;49.500;8.654;2023-07-20T04:56:56;100332.47;;;17.83;64.55
76378;BME280;65200;49.500;8.654;2023-07-20T04:59:23;100337.44;;;17.74;64.36
76378;BME280;65200;49.500;8.654;2023-07-20T05:01:49;100327.88;;;17.84;64.02
76378;BME280;65200;49.500;8.654;2023-07-20T05:04:16;100329.97;;;17.93;63.42
76378;BME280;65200;49.500;8.654;2023-07-20T05:06:42;100319.50;;;17.97;64.68
76378;BME280;65200;49.500;8.654;2023-07-20T05:09:08;100319.13;;;18.05;63.77
76378;BME280;65200;49.500;8.654;2023-07-20T05:11:35;100322.84;;;18.15;62.32
76378;BME280;65200;49.500;8.654;2023-07-20T05:14:03;100323.06;;;18.25;62.74
76378;BME280;65200;49.500;8.654;2023-07-20T05:16:29;100314.28;;;18.35;62.66
76378;BME280;65200;49.500;8.654;2023-07-20T05:18:56;100320.44;;;18.30;61.71
76378;BME280;65200;49.500;8.654;2023-07-20T05:21:23;100321.50;;;18.41;62.04
76378;BME280;65200;49.500;8.654;2023-07-20T05:23:49;100321.28;;;18.42;63.06
76378;BME280;65200;49.500;8.654;2023-07-20T05:26:16;100320.03;;;18.50;61.94
76378;BME280;65200;49.500;8.654;2023-07-20T05:28:42;100315.81;;;18.70;62.21
76378;BME280;65200;49.500;8.654;2023-07-20T05:31:10;100307.50;;;18.77;61.56
76378;BME280;65200;49.500;8.654;2023-07-20T05:33:36;100314.34;;;18.79;60.16
76378;BME280;65200;49.500;8.654;2023-07-20T05:36:03;100323.91;;;18.98;61.38
76378;BME280;65200;49.500;8.654;2023-07-20T05:38:30;100319.56;;;18.97;59.96
76378;BME280;65200;49.500;8.654;2023-07-20T05:40:59;100325.22;;;18.79;61.03
76378;BME280;65200;49.500;8.654;2023-07-20T05:43:27;100331.47;;;18.80;60.26
76378;BME280;65200;49.500;8.654;2023-07-20T05:45:53;100321.34;;;18.75;60.38
76378;BME280;65200;49.500;8.654;2023-07-20T05:48:21;100318.97;;;18.95;60.37
76378;BME280;65200;49.500;8.654;2023-07-20T05:50:48;100322.69;;;19.06;59.92
76378;BME280;65200;49.500;8.654;2023-07-20T05:53:14;100322.84;;;18.99;60.28
76378;BME280;65200;49.500;8.654;2023-07-20T05:55:40;100329.94;;;19.00;60.21
76378;BME280;65200;49.500;8.654;2023-07-20T05:58:07;100331.16;;;19.09;59.04
76378;BME280;65200;49.500;8.654;2023-07-20T06:00:33;100332.16;;;19.03;59.32
76378;BME280;65200;49.500;8.654;2023-07-20T06:03:00;100329.03;;;19.11;58.76
76378;BME280;65200;49.500;8.654;2023-07-20T06:05:29;100337.88;;;19.35;58.68
76378;BME280;65200;49.500;8.654;2023-07-20T06:07:55;100336.13;;;19.29;58.94
76378;BME280;65200;49.500;8.654;2023-07-20T06:10:22;100337.06;;;19.35;59.12
76378;BME280;65200;49.500;8.654;2023-07-20T06:12:49;100335.63;;;19.32;60.28
76378;BME280;65200;49.500;8.654;2023-07-20T06:15:25;100343.16;;;19.42;58.56
76378;BME280;65200;49.500;8.654;2023-07-20T06:17:54;100336.81;;;19.53;58.89
76378;BME280;65200;49.500;8.654;2023-07-20T06:20:21;100342.25;;;19.53;58.92
76378;BME280;65200;49.500;8.654;2023-07-20T06:22:49;100339.09;;;19.44;58.34
76378;BME280;65200;49.500;8.654;2023-07-20T06:25:16;100334.63;;;19.22;59.24
76378;BME280;65200;49.500;8.654;2023-07-20T06:27:43;100339.41;;;19.14;59.01
76378;BME280;65200;49.500;8.654;2023-07-20T06:30:10;100331.91;;;19.05;59.44
76378;BME280;65200;49.500;8.654;2023-07-20T06:32:38;100331.00;;;19.16;60.03
76378;BME280;65200;49.500;8.654;2023-07-20T06:35:05;100341.91;;;19.33;60.12
76378;BME280;65200;49.500;8.654;2023-07-20T06:37:32;100335.47;;;19.39;60.41
76378;BME280;65200;49.500;8.654;2023-07-20T06:40:00;100337.09;;;19.23;59.63
76378;BME280;65200;49.500;8.654;2023-07-20T06:42:27;100344.88;;;19.48;58.99
76378;BME280;65200;49.500;8.654;2023-07-20T06:44:53;100336.06;;;19.41;58.68
76378;BME280;65200;49.500;8.654;2023-07-20T06:47:20;100344.28;;;19.62;58.33
76378;BME280;65200;49.500;8.654;2023-07-20T06:49:46;100341.56;;;19.62;58.69
76378;BME280;65200;49.500;8.654;2023-07-20T06:52:13;100339.69;;;19.63;58.34
76378;BME280;65200;49.500;8.654;2023-07-20T06:54:39;100333.09;;;19.42;58.30
76378;BME280;65200;49.500;8.654;2023-07-20T06:57:07;100340.28;;;19.48;58.88
76378;BME280;65200;49.500;8.654;2023-07-20T06:59:34;100343.53;;;19.67;58.87
76378;BME280;65200;49.500;8.654;2023-07-20T07:02:00;100336.72;;;19.64;58.44
76378;BME280;65200;49.500;8.654;2023-07-20T07:04:26;100336.91;;;19.79;57.83
76378;BME280;65200;49.500;8.654;2023-07-20T07:06:53;100344.34;;;19.84;58.22
76378;BME280;65200;49.500;8.654;2023-07-20T07:09:20;100332.94;;;19.87;57.78
76378;BME280;65200;49.500;8.654;2023-07-20T07:11:47;100338.72;;;19.90;57.84
76378;BME280;65200;49.500;8.654;2023-07-20T07:14:14;100340.75;;;20.00;56.55
76378;BME280;65200;49.500;8.654;2023-07-20T07:16:41;100339.13;;;20.20;56.14
76378;BME280;65200;49.500;8.654;2023-07-20T07:19:07;100345.25;;;20.81;54.06
76378;BME280;65200;49.500;8.654;2023-07-20T07:21:34;100338.56;;;21.56;52.14
76378;BME280;65200;49.500;8.654;2023-07-20T07:24:00;100332.59;;;22.63;49.70
76378;BME280;65200;49.500;8.654;2023-07-20T07:26:26;100337.56;;;23.21;48.01
76378;BME280;65200;49.500;8.654;2023-07-20T07:28:53;100335.38;;;23.08;48.21
76378;BME280;65200;49.500;8.654;2023-07-20T07:31:21;100334.88;;;23.31;47.68
76378;BME280;65200;49.500;8.654;2023-07-20T07:33:48;100337.03;;;23.74;46.58
76378;BME280;65200;49.500;8.654;2023-07-20T07:36:15;100333.56;;;24.38;45.66
76378;BME280;65200;49.500;8.654;2023-07-20T07:38:41;100323.00;;;24.06;45.81
76378;BME280;65200;49.500;8.654;2023-07-20T07:41:07;100326.13;;;24.92;43.90
76378;BME280;65200;49.500;8.654;2023-07-20T07:43:34;100323.28;;;24.68;43.74
76378;BME280;65200;49.500;8.654;2023-07-20T07:46:01;100324.81;;;25.18;42.52
76378;BME280;65200;49.500;8.654;2023-07-20T07:48:30;100322.50;;;25.92;40.92
76378;BME280;65200;49.500;8.654;2023-07-20T07:50:56;100327.94;;;26.21;41.65
76378;BME280;65200;49.500;8.654;2023-07-20T07:53:23;100328.59;;;26.13;40.92
76378;BME280;65200;49.500;8.654;2023-07-20T07:55:51;100330.91;;;24.76;43.61
76378;BME280;65200;49.500;8.654;2023-07-20T07:58:17;100339.25;;;23.47;44.43
76378;BME280;65200;49.500;8.654;2023-07-20T08:00:44;100338.31;;;22.56;46.41
76378;BME280;65200;49.500;8.654;2023-07-20T08:03:13;100336.81;;;22.29;46.16
76378;BME280;65200;49.500;8.654;2023-07-20T08:05:41;100346.47;;;21.53;47.06
76378;BME280;65200;49.500;8.654;2023-07-20T08:08:07;100344.72;;;21.37;48.81
76378;BME280;65200;49.500;8.654;2023-07-20T08:10:34;100340.59;;;21.34;48.96
76378;BME280;65200;49.500;8.654;2023-07-20T08:13:01;100344.41;;;21.33;49.00
76378;BME280;65200;49.500;8.654;2023-07-20T08:15:28;100338.50;;;21.46;49.81
76378;BME280;65200;49.500;8.654;2023-07-20T08:17:54;100338.13;;;21.33;47.75
76378;BME280;65200;49.500;8.654;2023-07-20T08:20:20;100349.16;;;21.16;50.41
76378;BME280;65200;49.500;8.654;2023-07-20T08:22:54;100342.66;;;21.17;50.88
76378;BME280;65200;49.500;8.654;2023-07-20T08:25:21;100352.31;;;21.71;49.21
76378;BME280;65200;49.500;8.654;2023-07-20T08:27:47;100343.06;;;22.19;47.40
76378;BME280;65200;49.500;8.654;2023-07-20T08:30:14;100340.06;;;23.43;43.70
76378;BME280;65200;49.500;8.654;2023-07-20T08:32:40;100343.22;;;22.59;46.44
76378;BME280;65200;49.500;8.654;2023-07-20T08:35:07;100350.78;;;21.81;46.60
76378;BME280;65200;49.500;8.654;2023-07-20T08:37:34;100342.16;;;22.70;45.67
76378;BME280;65200;49.500;8.654;2023-07-20T08:40:03;100344.13;;;23.80;42.65
76378;BME280;65200;49.500;8.654;2023-07-20T08:42:33;100334.84;;;24.55;41.38
76378;BME280;65200;49.500;8.654;2023-07-20T08:45:05;100338.63;;;25.08;39.29
76378;BME280;65200;49.500;8.654;2023-07-20T08:47:32;100338.38;;;25.43;39.37
76378;BME280;65200;49.500;8.654;2023-07-20T08:50:00;100347.63;;;24.06;42.72
76378;BME280;65200;49.500;8.654;2023-07-20T08:52:33;100339.28;;;23.27;44.88
76378;BME280;65200;49.500;8.654;2023-07-20T08:55:00;100343.53;;;22.73;46.14
76378;BME280;65200;49.500;8.654;2023-07-20T08:57:31;100344.94;;;22.14;47.36
76378;BME280;65200;49.500;8.654;2023-07-20T09:00:00;100336.44;;;22.10;47.76
76378;BME280;65200;49.500;8.654;2023-07-20T09:02:30;100338.69;;;23.20;44.98
76378;BME280;65200;49.500;8.654;2023-07-20T09:05:01;100333.56;;;24.32;42.76
76378;BME280;65200;49.500;8.654;2023-07-20T09:07:28;100341.56;;;24.24;42.36
76378;BME280;65200;49.500;8.654;2023-07-20T09:09:57;100331.19;;;25.13;41.66
76378;BME280;65200;49.500;8.654;2023-07-20T09:12:23;100335.94;;;25.65;39.06
76378;BME280;65200;49.500;8.654;2023-07-20T09:14:52;100334.72;;;25.52;38.23
76378;BME280;65200;49.500;8.654;2023-07-20T09:17:18;100325.66;;;25.18;38.93
76378;BME280;65200;49.500;8.654;2023-07-20T09:19:48;100325.66;;;24.80;41.00
76378;BME280;65200;49.500;8.654;2023-07-20T09:22:15;100323.63;;;25.29;41.47
76378;BME280;65200;49.500;8.654;2023-07-20T09:24:43;100321.03;;;25.47;39.84
76378;BME280;65200;49.500;8.654;2023-07-20T09:27:09;100334.97;;;24.79;40.92
76378;BME280;65200;49.500;8.654;2023-07-20T09:29:47;100324.00;;;24.79;41.01
76378;BME280;65200;49.500;8.654;2023-07-20T09:32:18;100340.84;;;23.73;42.03
76378;BME280;65200;49.500;8.654;2023-07-20T09:34:46;100327.78;;;23.40;42.59
76378;BME280;65200;49.500;8.654;2023-07-20T09:37:13;100335.91;;;22.95;43.92
76378;BME280;65200;49.500;8.654;2023-07-20T09:39:43;100333.22;;;23.20;42.36
76378;BME280;65200;49.500;8.654;2023-07-20T09:42:11;100333.44;;;23.89;41.77
76378;BME280;65200;49.500;8.654;2023-07-20T09:44:38;100339.75;;;24.53;39.79
76378;BME280;65200;49.500;8.654;2023-07-20T09:47:05;100339.78;;;23.74;41.10
76378;BME280;65200;49.500;8.654;2023-07-20T09:49:33;100332.94;;;23.62;41.88
76378;BME280;65200;49.500;8.654;2023-07-20T09:52:05;100335.09;;;23.75;41.31
76378;BME280;65200;49.500;8.654;2023-07-20T09:54:32;100325.66;;;24.85;41.34
76378;BME280;65200;49.500;8.654;2023-07-20T09:56:59;100327.47;;;24.99;39.72
76378;BME280;65200;49.500;8.654;2023-07-20T09:59:26;100333.84;;;24.36;41.42
76378;BME280;65200;49.500;8.654;2023-07-20T10:01:53;100324.91;;;24.05;41.83
76378;BME280;65200;49.500;8.654;2023-07-20T10:04:25;100323.31;;;24.53;40.68
76378;BME280;65200;49.500;8.654;2023-07-20T10:06:54;100315.06;;;25.40;38.77
76378;BME280;65200;49.500;8.654;2023-07-20T10:09:22;100318.38;;;25.66;38.99
76378;BME280;65200;49.500;8.654;2023-07-20T10:11:51;100309.22;;;25.99;37.01
76378;BME280;65200;49.500;8.654;2023-07-20T10:14:20;100309.69;;;26.30;36.78
76378;BME280;65200;49.500;8.654;2023-07-20T10:16:51;100315.84;;;25.46;38.80
76378;BME280;65200;49.500;8.654;2023-07-20T10:19:23;100319.03;;;24.86;38.66
76378;BME280;65200;49.500;8.654;2023-07-20T10:21:56;100315.03;;;24.14;40.42
76378;BME280;65200;49.500;8.654;2023-07-20T10:24:27;100319.19;;;24.02;41.32
76378;BME280;65200;49.500;8.654;2023-07-20T10:26:55;100306.84;;;24.04;41.53
76378;BME280;65200;49.500;8.654;2023-07-20T10:29:22;100315.66;;;23.76;41.15
76378;BME280;65200;49.500;8.654;2023-07-20T10:31:49;100315.00;;;24.19;40.69
76378;BME280;65200;49.500;8.654;2023-07-20T10:34:16;100295.59;;;24.60;40.09
76378;BME280;65200;49.500;8.654;2023-07-20T10:36:44;100297.72;;;24.78;40.24
76378;BME280;65200;49.500;8.654;2023-07-20T10:39:23;100298.38;;;25.37;39.32
76378;BME280;65200;49.500;8.654;2023-07-20T10:42:00;100297.00;;;25.63;37.86
76378;BME280;65200;49.500;8.654;2023-07-20T10:44:27;100290.72;;;26.10;37.22
76378;BME280;65200;49.500;8.654;2023-07-20T10:46:59;100283.78;;;26.54;37.41
76378;BME280;65200;49.500;8.654;2023-07-20T10:49:25;100286.13;;;26.24;36.75
76378;BME280;65200;49.500;8.654;2023-07-20T10:51:56;100286.06;;;26.10;37.00
76378;BME280;65200;49.500;8.654;2023-07-20T10:54:35;100277.50;;;25.36;37.07
76378;BME280;65200;49.500;8.654;2023-07-20T10:57:22;100267.94;;;25.86;36.06
76378;BME280;65200;49.500;8.654;2023-07-20T10:59:49;100258.75;;;26.37;34.76
76378;BME280;65200;49.500;8.654;2023-07-20T11:02:18;100271.47;;;26.70;34.88
76378;BME280;65200;49.500;8.654;2023-07-20T11:04:46;100263.28;;;27.03;33.05
76378;BME280;65200;49.500;8.654;2023-07-20T11:07:15;100255.72;;;26.94;33.41
76378;BME280;65200;49.500;8.654;2023-07-20T11:09:43;100255.44;;;27.10;33.54
76378;BME280;65200;49.500;8.654;2023-07-20T11:12:11;100255.94;;;27.44;33.89
76378;BME280;65200;49.500;8.654;2023-07-20T11:14:40;100259.31;;;26.76;33.83
76378;BME280;65200;49.500;8.654;2023-07-20T11:17:11;100258.31;;;26.49;33.15
76378;BME280;65200;49.500;8.654;2023-07-20T11:19:39;100253.72;;;26.44;33.48
76378;BME280;65200;49.500;8.654;2023-07-20T11:22:06;100257.78;;;26.28;35.15
76378;BME280;65200;49.500;8.654;2023-07-20T11:24:34;100248.94;;;26.87;33.52
76378;BME280;65200;49.500;8.654;2023-07-20T11:27:02;100252.69;;;27.42;34.25
76378;BME280;65200;49.500;8.654;2023-07-20T11:29:29;100246.75;;;27.03;33.50
76378;BME280;65200;49.500;8.654;2023-07-20T11:31:56;100243.06;;;26.56;33.63
76378;BME280;65200;49.500;8.654;2023-07-20T11:34:24;100239.81;;;26.91;33.13
76378;BME280;65200;49.500;8.654;2023-07-20T11:36:52;100243.25;;;27.61;32.85
76378;BME280;65200;49.500;8.654;2023-07-20T11:39:21;100228.00;;;26.72;33.68
76378;BME280;65200;49.500;8.654;2023-07-20T11:41:50;100236.38;;;26.25;34.69
76378;BME280;65200;49.500;8.654;2023-07-20T11:44:20;100244.19;;;25.95;35.66
76378;BME280;65200;49.500;8.654;2023-07-20T11:46:59;100228.50;;;26.93;33.56
76378;BME280;65200;49.500;8.654;2023-07-20T11:49:26;100233.47;;;26.91;34.42
76378;BME280;65200;49.500;8.654;2023-07-20T11:51:53;100224.38;;;27.95;33.71
76378;BME280;65200;49.500;8.654;2023-07-20T11:54:19;100223.03;;;27.66;32.11
76378;BME280;65200;49.500;8.654;2023-07-20T11:56:46;100220.28;;;27.79;31.60
76378;BME280;65200;49.500;8.654;2023-07-20T11:59:13;100216.91;;;27.42;32.08
76378;BME280;65200;49.500;8.654;2023-07-20T12:01:40;100212.78;;;26.80;32.75
76378;BME280;65200;49.500;8.654;2023-07-20T12:04:07;100211.09;;;26.65;33.41
76378;BME280;65200;49.500;8.654;2023-07-20T12:06:34;100214.13;;;27.28;32.19
76378;BME280;65200;49.500;8.654;2023-07-20T12:09:00;100211.31;;;27.15;32.47
76378;BME280;65200;49.500;8.654;2023-07-20T12:11:31;100203.00;;;26.87;32.87
76378;BME280;65200;49.500;8.654;2023-07-20T12:13:58;100203.88;;;26.51;33.19
76378;BME280;65200;49.500;8.654;2023-07-20T12:16:26;100200.44;;;26.03;34.58
76378;BME280;65200;49.500;8.654;2023-07-20T12:19:00;100196.38;;;25.96;35.00
76378;BME280;65200;49.500;8.654;2023-07-20T12:21:27;100198.50;;;26.22;33.48
76378;BME280;65200;49.500;8.654;2023-07-20T12:23:56;100194.31;;;27.26;32.02
76378;BME280;65200;49.500;8.654;2023-07-20T12:26:22;100195.88;;;27.86;31.19
76378;BME280;65200;49.500;8.654;2023-07-20T12:28:49;100194.63;;;28.19;30.71
76378;BME280;65200;49.500;8.654;2023-07-20T12:31:16;100194.88;;;27.28;31.01
76378;BME280;65200;49.500;8.654;2023-07-20T12:33:42;100194.06;;;27.82;30.95
76378;BME280;65200;49.500;8.654;2023-07-20T12:36:10;100185.94;;;27.04;31.03
76378;BME280;65200;49.500;8.654;2023-07-20T12:38:37;100183.47;;;26.70;31.07
76378;BME280;65200;49.500;8.654;2023-07-20T12:41:03;100188.34;;;27.65;32.44
76378;BME280;65200;49.500;8.654;2023-07-20T12:43:30;100184.34;;;26.84;33.70
76378;BME280;65200;49.500;8.654;2023-07-20T12:45:58;100183.25;;;27.72;32.83
76378;BME280;65200;49.500;8.654;2023-07-20T12:48:24;100182.84;;;27.92;29.68
76378;BME280;65200;49.500;8.654;2023-07-20T12:50:51;100179.56;;;28.39;30.86
76378;BME280;65200;49.500;8.654;2023-07-20T12:53:19;100175.91;;;27.81;30.91